sensor_id;sensor_type;location;lat;lon;timestamp;P1;durP1;ratioP1;P2;durP2;ratioP2
14584;SDS011;7379;51.506;11.876;2024-02-23T00:01:53;1.60;;;1.50;;
14584;SDS011;7379;51.506;11.876;2024-02-23T00:04:20;1.67;;;1.50;;
14584;SDS011;7379;51.506;11.876;2024-02-23T00:06:47;1.88;;;1.48;;
14584;SDS011;7379;51.506;11.876;2024-02-23T00:09:13;1.83;;;1.63;;
14584;SDS011;7379;51.506;11.876;2024-02-23T00:11:42;1.48;;;1.38;;
14584;SDS011;7379;51.506;11.876;2024-02-23T00:14:10;1.58;;;1.48;;
14584;SDS011;7379;51.506;11.876;2024-02-23T00:16:37;1.48;;;1.38;;
14584;SDS011;7379;51.506;11.876;2024-02-23T00:19:06;2.40;;;1.60;;
14584;SDS011;7379;51.506;11.876;2024-02-23T00:21:33;2.65;;;1.50;;
14584;SDS011;7379;51.506;11.876;2024-02-23T00:24:00;1.92;;;1.50;;
14584;SDS011;7379;51.506;11.876;2024-02-23T00:26:27;2.03;;;1.58;;
14584;SDS011;7379;51.506;11.876;2024-02-23T00:28:55;1.80;;;1.40;;
14584;SDS011;7379;51.506;11.876;2024-02-23T00:31:22;1.30;;;1.20;;
14584;SDS011;7379;51.506;11.876;2024-02-23T00:33:49;2.65;;;1.60;;
14584;SDS011;7379;51.506;11.876;2024-02-23T00:36:16;1.50;;;1.40;;
14584;SDS011;7379;51.506;11.876;2024-02-23T00:38:42;1.70;;;1.60;;
14584;SDS011;7379;51.506;11.876;2024-02-23T00:41:09;1.80;;;1.40;;
14584;SDS011;7379;51.506;11.876;2024-02-23T00:43:39;3.38;;;1.80;;
14584;SDS011;7379;51.506;11.876;2024-02-23T00:46:08;2.85;;;1.50;;
14584;SDS011;7379;51.506;11.876;2024-02-23T00:48:35;1.45;;;1.35;;
14584;SDS011;7379;51.506;11.876;2024-02-23T00:51:02;1.42;;;1.30;;
14584;SDS011;7379;51.506;11.876;2024-02-23T00:53:30;2.15;;;1.40;;
14584;SDS011;7379;51.506;11.876;2024-02-23T00:55:57;2.08;;;1.25;;
14584;SDS011;7379;51.506;11.876;2024-02-23T00:58:23;1.20;;;1.10;;
14584;SDS011;7379;51.506;11.876;2024-02-23T01:00:50;1.67;;;1.13;;
14584;SDS011;7379;51.506;11.876;2024-02-23T01:03:18;2.40;;;1.20;;
14584;SDS011;7379;51.506;11.876;2024-02-23T01:05:45;1.90;;;1.10;;
14584;SDS011;7379;51.506;11.876;2024-02-23T01:08:12;1.77;;;0.98;;
14584;SDS011;7379;51.506;11.876;2024-02-23T01:10:39;1.27;;;1.17;;
14584;SDS011;7379;51.506;11.876;2024-02-23T01:13:05;2.45;;;1.35;;
14584;SDS011;7379;51.506;11.876;2024-02-23T01:15:32;1.60;;;1.23;;
14584;SDS011;7379;51.506;11.876;2024-02-23T01:17:59;1.45;;;1.10;;
14584;SDS011;7379;51.506;11.876;2024-02-23T01:20:27;1.27;;;1.10;;
14584;SDS011;7379;51.506;11.876;2024-02-23T01:22:54;1.45;;;1.20;;
14584;SDS011;7379;51.506;11.876;2024-02-23T01:25:20;2.92;;;1.27;;
14584;SDS011;7379;51.506;11.876;2024-02-23T01:27:47;1.17;;;1.10;;
14584;SDS011;7379;51.506;11.876;2024-02-23T01:30:14;1.55;;;1.10;;
14584;SDS011;7379;51.506;11.876;2024-02-23T01:32:41;1.85;;;1.20;;
14584;SDS011;7379;51.506;11.876;2024-02-23T01:35:08;1.35;;;1.20;;
14584;SDS011;7379;51.506;11.876;2024-02-23T01:37:36;1.50;;;1.20;;
14584;SDS011;7379;51.506;11.876;2024-02-23T01:40:03;2.53;;;1.13;;
14584;SDS011;7379;51.506;11.876;2024-02-23T01:42:31;1.02;;;1.00;;
14584;SDS011;7379;51.506;11.876;2024-02-23T01:44:58;1.10;;;1.00;;
14584;SDS011;7379;51.506;11.876;2024-02-23T01:47:26;3.08;;;1.23;;
14584;SDS011;7379;51.506;11.876;2024-02-23T01:49:54;1.27;;;1.05;;
14584;SDS011;7379;51.506;11.876;2024-02-23T01:52:22;2.13;;;1.10;;
14584;SDS011;7379;51.506;11.876;2024-02-23T01:54:50;1.35;;;1.08;;
14584;SDS011;7379;51.506;11.876;2024-02-23T01:57:17;1.00;;;0.95;;
14584;SDS011;7379;51.506;11.876;2024-02-23T01:59:44;1.00;;;0.90;;
14584;SDS011;7379;51.506;11.876;2024-02-23T02:02:11;2.00;;;1.20;;
14584;SDS011;7379;51.506;11.876;2024-02-23T02:04:38;2.38;;;1.10;;
14584;SDS011;7379;51.506;11.876;2024-02-23T02:07:04;0.95;;;0.95;;
14584;SDS011;7379;51.506;11.876;2024-02-23T02:09:31;1.90;;;0.90;;
14584;SDS011;7379;51.506;11.876;2024-02-23T02:12:00;1.42;;;0.95;;
14584;SDS011;7379;51.506;11.876;2024-02-23T02:14:27;1.23;;;1.13;;
14584;SDS011;7379;51.506;11.876;2024-02-23T02:16:56;1.30;;;0.98;;
14584;SDS011;7379;51.506;11.876;2024-02-23T02:19:23;1.63;;;1.15;;
14584;SDS011;7379;51.506;11.876;2024-02-23T02:21:50;1.15;;;1.05;;
14584;SDS011;7379;51.506;11.876;2024-02-23T02:24:16;2.60;;;1.15;;
14584;SDS011;7379;51.506;11.876;2024-02-23T02:26:43;2.28;;;0.93;;
14584;SDS011;7379;51.506;11.876;2024-02-23T02:29:13;1.10;;;1.00;;
14584;SDS011;7379;51.506;11.876;2024-02-23T02:31:40;0.95;;;0.88;;
14584;SDS011;7379;51.506;11.876;2024-02-23T02:34:06;1.23;;;0.85;;
14584;SDS011;7379;51.506;11.876;2024-02-23T02:36:33;3.13;;;1.10;;
14584;SDS011;7379;51.506;11.876;2024-02-23T02:39:00;1.48;;;1.15;;
14584;SDS011;7379;51.506;11.876;2024-02-23T02:41:27;1.33;;;0.98;;
14584;SDS011;7379;51.506;11.876;2024-02-23T02:43:55;1.00;;;0.90;;
14584;SDS011;7379;51.506;11.876;2024-02-23T02:46:23;1.00;;;1.00;;
14584;SDS011;7379;51.506;11.876;2024-02-23T02:48:50;0.90;;;0.90;;
14584;SDS011;7379;51.506;11.876;2024-02-23T02:51:17;1.60;;;1.15;;
14584;SDS011;7379;51.506;11.876;2024-02-23T02:53:43;1.73;;;0.95;;
14584;SDS011;7379;51.506;11.876;2024-02-23T02:56:10;1.52;;;1.05;;
14584;SDS011;7379;51.506;11.876;2024-02-23T02:58:37;1.35;;;1.20;;
14584;SDS011;7379;51.506;11.876;2024-02-23T03:01:03;1.30;;;0.90;;
14584;SDS011;7379;51.506;11.876;2024-02-23T03:03:32;1.35;;;1.02;;
14584;SDS011;7379;51.506;11.876;2024-02-23T03:05:59;1.02;;;0.98;;
14584;SDS011;7379;51.506;11.876;2024-02-23T03:08:25;0.98;;;0.90;;
14584;SDS011;7379;51.506;11.876;2024-02-23T03:10:52;0.82;;;0.80;;
14584;SDS011;7379;51.506;11.876;2024-02-23T03:13:19;1.30;;;1.10;;
14584;SDS011;7379;51.506;11.876;2024-02-23T03:15:45;1.20;;;1.00;;
14584;SDS011;7379;51.506;11.876;2024-02-23T03:18:12;0.82;;;0.75;;
14584;SDS011;7379;51.506;11.876;2024-02-23T03:20:41;1.42;;;0.90;;
14584;SDS011;7379;51.506;11.876;2024-02-23T03:23:08;1.38;;;1.00;;
14584;SDS011;7379;51.506;11.876;2024-02-23T03:25:34;1.52;;;1.05;;
14584;SDS011;7379;51.506;11.876;2024-02-23T03:28:01;1.13;;;0.85;;
14584;SDS011;7379;51.506;11.876;2024-02-23T03:30:28;1.50;;;1.00;;
14584;SDS011;7379;51.506;11.876;2024-02-23T03:32:55;2.20;;;1.13;;
14584;SDS011;7379;51.506;11.876;2024-02-23T03:35:21;1.13;;;1.00;;
14584;SDS011;7379;51.506;11.876;2024-02-23T03:37:49;0.82;;;0.82;;
14584;SDS011;7379;51.506;11.876;2024-02-23T03:40:16;1.15;;;1.05;;
14584;SDS011;7379;51.506;11.876;2024-02-23T03:42:44;0.90;;;0.90;;
14584;SDS011;7379;51.506;11.876;2024-02-23T03:45:17;1.05;;;0.93;;
14584;SDS011;7379;51.506;11.876;2024-02-23T03:47:44;1.63;;;1.00;;
14584;SDS011;7379;51.506;11.876;2024-02-23T03:50:10;1.25;;;1.15;;
14584;SDS011;7379;51.506;11.876;2024-02-23T03:52:37;1.25;;;0.95;;
14584;SDS011;7379;51.506;11.876;2024-02-23T03:55:06;1.58;;;1.02;;
14584;SDS011;7379;51.506;11.876;2024-02-23T03:57:34;1.10;;;1.00;;
14584;SDS011;7379;51.506;11.876;2024-02-23T04:00:01;1.00;;;0.90;;
14584;SDS011;7379;51.506;11.876;2024-02-23T04:02:29;1.20;;;1.10;;
14584;SDS011;7379;51.506;11.876;2024-02-23T04:04:55;0.95;;;0.95;;
14584;SDS011;7379;51.506;11.876;2024-02-23T04:07:22;0.80;;;0.80;;
14584;SDS011;7379;51.506;11.876;2024-02-23T04:09:49;1.27;;;1.00;;
14584;SDS011;7379;51.506;11.876;2024-02-23T04:12:18;1.65;;;0.90;;
14584;SDS011;7379;51.506;11.876;2024-02-23T04:14:45;2.00;;;1.23;;
14584;SDS011;7379;51.506;11.876;2024-02-23T04:17:12;0.90;;;0.90;;
14584;SDS011;7379;51.506;11.876;2024-02-23T04:19:39;0.80;;;0.80;;
14584;SDS011;7379;51.506;11.876;2024-02-23T04:22:06;1.33;;;0.90;;
14584;SDS011;7379;51.506;11.876;2024-02-23T04:24:33;1.17;;;1.05;;
14584;SDS011;7379;51.506;11.876;2024-02-23T04:27:03;1.17;;;1.00;;
14584;SDS011;7379;51.506;11.876;2024-02-23T04:29:32;0.80;;;0.80;;
14584;SDS011;7379;51.506;11.876;2024-02-23T04:31:59;1.42;;;0.93;;
14584;SDS011;7379;51.506;11.876;2024-02-23T04:34:26;0.80;;;0.80;;
14584;SDS011;7379;51.506;11.876;2024-02-23T04:36:53;0.90;;;0.90;;
14584;SDS011;7379;51.506;11.876;2024-02-23T04:39:19;1.13;;;1.02;;
14584;SDS011;7379;51.506;11.876;2024-02-23T04:41:47;0.95;;;0.82;;
14584;SDS011;7379;51.506;11.876;2024-02-23T04:44:13;1.38;;;1.00;;
14584;SDS011;7379;51.506;11.876;2024-02-23T04:46:41;1.00;;;0.90;;
14584;SDS011;7379;51.506;11.876;2024-02-23T04:49:08;0.70;;;0.70;;
14584;SDS011;7379;51.506;11.876;2024-02-23T04:51:36;1.20;;;1.10;;
14584;SDS011;7379;51.506;11.876;2024-02-23T04:54:03;1.73;;;1.05;;
14584;SDS011;7379;51.506;11.876;2024-02-23T04:56:30;1.95;;;1.17;;
14584;SDS011;7379;51.506;11.876;2024-02-23T04:58:58;1.23;;;0.93;;
14584;SDS011;7379;51.506;11.876;2024-02-23T05:01:25;1.27;;;0.70;;
14584;SDS011;7379;51.506;11.876;2024-02-23T05:03:53;0.75;;;0.75;;
14584;SDS011;7379;51.506;11.876;2024-02-23T05:06:19;0.98;;;0.70;;
14584;SDS011;7379;51.506;11.876;2024-02-23T05:08:46;1.75;;;0.85;;
14584;SDS011;7379;51.506;11.876;2024-02-23T05:11:14;0.75;;;0.70;;
14584;SDS011;7379;51.506;11.876;2024-02-23T05:13:41;1.38;;;0.93;;
14584;SDS011;7379;51.506;11.876;2024-02-23T05:16:08;0.80;;;0.80;;
14584;SDS011;7379;51.506;11.876;2024-02-23T05:18:34;0.75;;;0.75;;
14584;SDS011;7379;51.506;11.876;2024-02-23T05:21:02;0.70;;;0.70;;
14584;SDS011;7379;51.506;11.876;2024-02-23T05:23:30;0.85;;;0.80;;
14584;SDS011;7379;51.506;11.876;2024-02-23T05:25:56;0.77;;;0.77;;
14584;SDS011;7379;51.506;11.876;2024-02-23T05:28:23;0.50;;;0.50;;
14584;SDS011;7379;51.506;11.876;2024-02-23T05:30:50;1.52;;;0.98;;
14584;SDS011;7379;51.506;11.876;2024-02-23T05:33:17;1.48;;;0.90;;
14584;SDS011;7379;51.506;11.876;2024-02-23T05:35:45;0.77;;;0.77;;
14584;SDS011;7379;51.506;11.876;2024-02-23T05:38:15;0.90;;;0.75;;
14584;SDS011;7379;51.506;11.876;2024-02-23T05:40:41;0.88;;;0.80;;
14584;SDS011;7379;51.506;11.876;2024-02-23T05:43:08;1.20;;;0.90;;
14584;SDS011;7379;51.506;11.876;2024-02-23T05:45:35;0.73;;;0.73;;
14584;SDS011;7379;51.506;11.876;2024-02-23T05:48:02;0.77;;;0.73;;
14584;SDS011;7379;51.506;11.876;2024-02-23T05:50:29;0.80;;;0.80;;
14584;SDS011;7379;51.506;11.876;2024-02-23T05:52:56;0.88;;;0.88;;
14584;SDS011;7379;51.506;11.876;2024-02-23T05:55:24;0.88;;;0.88;;
14584;SDS011;7379;51.506;11.876;2024-02-23T05:57:51;1.10;;;1.00;;
14584;SDS011;7379;51.506;11.876;2024-02-23T06:00:18;1.08;;;0.98;;
14584;SDS011;7379;51.506;11.876;2024-02-23T06:02:46;1.05;;;0.95;;
14584;SDS011;7379;51.506;11.876;2024-02-23T06:05:13;0.98;;;0.93;;
14584;SDS011;7379;51.506;11.876;2024-02-23T06:07:40;0.90;;;0.90;;
14584;SDS011;7379;51.506;11.876;2024-02-23T06:10:07;1.10;;;1.00;;
14584;SDS011;7379;51.506;11.876;2024-02-23T06:12:36;1.25;;;1.00;;
14584;SDS011;7379;51.506;11.876;2024-02-23T06:15:04;1.35;;;1.10;;
14584;SDS011;7379;51.506;11.876;2024-02-23T06:17:31;1.42;;;1.13;;
14584;SDS011;7379;51.506;11.876;2024-02-23T06:19:58;1.35;;;1.05;;
14584;SDS011;7379;51.506;11.876;2024-02-23T06:22:24;0.80;;;0.80;;
14584;SDS011;7379;51.506;11.876;2024-02-23T06:24:51;1.08;;;0.95;;
14584;SDS011;7379;51.506;11.876;2024-02-23T06:27:18;1.27;;;1.10;;
14584;SDS011;7379;51.506;11.876;2024-02-23T06:29:46;1.73;;;1.02;;
14584;SDS011;7379;51.506;11.876;2024-02-23T06:32:13;1.50;;;1.08;;
14584;SDS011;7379;51.506;11.876;2024-02-23T06:34:40;1.20;;;1.10;;
14584;SDS011;7379;51.506;11.876;2024-02-23T06:37:07;0.90;;;0.90;;
14584;SDS011;7379;51.506;11.876;2024-02-23T06:39:34;1.95;;;1.02;;
14584;SDS011;7379;51.506;11.876;2024-02-23T06:42:00;1.25;;;1.10;;
14584;SDS011;7379;51.506;11.876;2024-02-23T06:44:29;0.93;;;0.93;;
14584;SDS011;7379;51.506;11.876;2024-02-23T06:46:57;1.45;;;1.20;;
14584;SDS011;7379;51.506;11.876;2024-02-23T06:49:24;3.40;;;1.20;;
14584;SDS011;7379;51.506;11.876;2024-02-23T06:51:51;1.77;;;0.88;;
14584;SDS011;7379;51.506;11.876;2024-02-23T06:54:18;1.92;;;1.25;;
14584;SDS011;7379;51.506;11.876;2024-02-23T06:56:45;1.20;;;1.10;;
14584;SDS011;7379;51.506;11.876;2024-02-23T06:59:11;1.08;;;0.98;;
14584;SDS011;7379;51.506;11.876;2024-02-23T07:01:47;1.17;;;1.00;;
14584;SDS011;7379;51.506;11.876;2024-02-23T07:04:15;2.92;;;1.17;;
14584;SDS011;7379;51.506;11.876;2024-02-23T07:06:42;1.77;;;1.20;;
14584;SDS011;7379;51.506;11.876;2024-02-23T07:09:09;1.27;;;1.13;;
14584;SDS011;7379;51.506;11.876;2024-02-23T07:11:36;1.83;;;1.10;;
14584;SDS011;7379;51.506;11.876;2024-02-23T07:14:03;2.58;;;1.30;;
14584;SDS011;7379;51.506;11.876;2024-02-23T07:16:30;1.95;;;1.20;;
14584;SDS011;7379;51.506;11.876;2024-02-23T07:18:57;1.58;;;1.10;;
14584;SDS011;7379;51.506;11.876;2024-02-23T07:21:25;1.63;;;1.00;;
14584;SDS011;7379;51.506;11.876;2024-02-23T07:23:52;2.28;;;1.10;;
14584;SDS011;7379;51.506;11.876;2024-02-23T07:26:19;1.40;;;1.30;;
14584;SDS011;7379;51.506;11.876;2024-02-23T07:28:47;1.52;;;1.30;;
14584;SDS011;7379;51.506;11.876;2024-02-23T07:31:14;2.08;;;1.35;;
14584;SDS011;7379;51.506;11.876;2024-02-23T07:33:41;1.98;;;1.35;;
14584;SDS011;7379;51.506;11.876;2024-02-23T07:36:13;3.00;;;1.38;;
14584;SDS011;7379;51.506;11.876;2024-02-23T07:38:41;1.88;;;1.38;;
14584;SDS011;7379;51.506;11.876;2024-02-23T07:41:08;1.67;;;1.30;;
14584;SDS011;7379;51.506;11.876;2024-02-23T07:43:35;1.90;;;1.30;;
14584;SDS011;7379;51.506;11.876;2024-02-23T07:46:02;1.35;;;1.25;;
14584;SDS011;7379;51.506;11.876;2024-02-23T07:48:33;1.77;;;1.35;;
14584;SDS011;7379;51.506;11.876;2024-02-23T07:51:00;2.13;;;1.10;;
14584;SDS011;7379;51.506;11.876;2024-02-23T07:53:27;1.60;;;1.40;;
14584;SDS011;7379;51.506;11.876;2024-02-23T07:55:55;1.50;;;1.25;;
14584;SDS011;7379;51.506;11.876;2024-02-23T07:58:24;1.65;;;1.10;;
14584;SDS011;7379;51.506;11.876;2024-02-23T08:00:51;2.45;;;1.20;;
14584;SDS011;7379;51.506;11.876;2024-02-23T08:03:18;1.80;;;1.25;;
14584;SDS011;7379;51.506;11.876;2024-02-23T08:05:44;3.47;;;1.40;;
14584;SDS011;7379;51.506;11.876;2024-02-23T08:08:12;1.40;;;1.20;;
14584;SDS011;7379;51.506;11.876;2024-02-23T08:10:38;2.15;;;1.52;;
14584;SDS011;7379;51.506;11.876;2024-02-23T08:13:06;1.77;;;1.35;;
14584;SDS011;7379;51.506;11.876;2024-02-23T08:15:35;1.42;;;1.13;;
14584;SDS011;7379;51.506;11.876;2024-02-23T08:18:02;2.38;;;1.40;;
14584;SDS011;7379;51.506;11.876;2024-02-23T08:20:29;2.65;;;1.40;;
14584;SDS011;7379;51.506;11.876;2024-02-23T08:22:55;2.28;;;1.40;;
14584;SDS011;7379;51.506;11.876;2024-02-23T08:25:22;1.67;;;1.25;;
14584;SDS011;7379;51.506;11.876;2024-02-23T08:27:49;2.05;;;1.50;;
14584;SDS011;7379;51.506;11.876;2024-02-23T08:30:17;1.67;;;1.30;;
14584;SDS011;7379;51.506;11.876;2024-02-23T08:32:45;3.00;;;1.60;;
14584;SDS011;7379;51.506;11.876;2024-02-23T08:35:12;3.63;;;1.48;;
14584;SDS011;7379;51.506;11.876;2024-02-23T08:37:40;3.28;;;1.52;;
14584;SDS011;7379;51.506;11.876;2024-02-23T08:40:08;5.20;;;1.58;;
14584;SDS011;7379;51.506;11.876;2024-02-23T08:42:35;3.90;;;1.60;;
14584;SDS011;7379;51.506;11.876;2024-02-23T08:45:02;1.63;;;1.40;;
14584;SDS011;7379;51.506;11.876;2024-02-23T08:47:30;3.08;;;1.40;;
14584;SDS011;7379;51.506;11.876;2024-02-23T08:50:00;3.05;;;1.60;;
14584;SDS011;7379;51.506;11.876;2024-02-23T08:52:28;1.40;;;1.30;;
14584;SDS011;7379;51.506;11.876;2024-02-23T08:54:55;4.78;;;1.50;;
14584;SDS011;7379;51.506;11.876;2024-02-23T08:57:22;2.95;;;1.20;;
14584;SDS011;7379;51.506;11.876;2024-02-23T08:59:48;1.35;;;1.20;;
14584;SDS011;7379;51.506;11.876;2024-02-23T09:02:15;2.13;;;1.25;;
14584;SDS011;7379;51.506;11.876;2024-02-23T09:04:43;2.05;;;1.40;;
14584;SDS011;7379;51.506;11.876;2024-02-23T09:07:10;2.10;;;1.33;;
14584;SDS011;7379;51.506;11.876;2024-02-23T09:09:37;2.75;;;1.48;;
14584;SDS011;7379;51.506;11.876;2024-02-23T09:12:04;1.75;;;1.42;;
14584;SDS011;7379;51.506;11.876;2024-02-23T09:14:35;1.98;;;1.40;;
14584;SDS011;7379;51.506;11.876;2024-02-23T09:17:02;2.58;;;1.60;;
14584;SDS011;7379;51.506;11.876;2024-02-23T09:19:31;2.55;;;1.95;;
14584;SDS011;7379;51.506;11.876;2024-02-23T09:21:59;3.10;;;2.10;;
14584;SDS011;7379;51.506;11.876;2024-02-23T09:24:27;2.30;;;2.00;;
14584;SDS011;7379;51.506;11.876;2024-02-23T09:26:54;2.20;;;1.70;;
14584;SDS011;7379;51.506;11.876;2024-02-23T09:29:21;2.67;;;1.80;;
14584;SDS011;7379;51.506;11.876;2024-02-23T09:31:48;2.28;;;1.77;;
14584;SDS011;7379;51.506;11.876;2024-02-23T09:34:15;2.22;;;1.60;;
14584;SDS011;7379;51.506;11.876;2024-02-23T09:36:42;3.40;;;2.00;;
14584;SDS011;7379;51.506;11.876;2024-02-23T09:39:10;3.60;;;1.90;;
14584;SDS011;7379;51.506;11.876;2024-02-23T09:41:37;4.03;;;1.88;;
14584;SDS011;7379;51.506;11.876;2024-02-23T09:44:05;2.28;;;1.77;;
14584;SDS011;7379;51.506;11.876;2024-02-23T09:46:34;2.05;;;1.50;;
14584;SDS011;7379;51.506;11.876;2024-02-23T09:49:03;2.08;;;1.60;;
14584;SDS011;7379;51.506;11.876;2024-02-23T09:51:31;2.05;;;1.52;;
14584;SDS011;7379;51.506;11.876;2024-02-23T09:54:00;2.45;;;1.48;;
14584;SDS011;7379;51.506;11.876;2024-02-23T09:56:29;2.20;;;1.60;;
14584;SDS011;7379;51.506;11.876;2024-02-23T09:58:58;3.58;;;1.90;;
14584;SDS011;7379;51.506;11.876;2024-02-23T10:01:27;2.03;;;1.60;;
14584;SDS011;7379;51.506;11.876;2024-02-23T10:03:56;1.60;;;1.50;;
14584;SDS011;7379;51.506;11.876;2024-02-23T10:06:23;1.92;;;1.40;;
14584;SDS011;7379;51.506;11.876;2024-02-23T10:08:50;2.22;;;1.50;;
14584;SDS011;7379;51.506;11.876;2024-02-23T10:11:19;2.03;;;1.85;;
14584;SDS011;7379;51.506;11.876;2024-02-23T10:13:48;2.88;;;1.55;;
14584;SDS011;7379;51.506;11.876;2024-02-23T10:16:16;2.60;;;1.63;;
14584;SDS011;7379;51.506;11.876;2024-02-23T10:18:45;2.05;;;1.60;;
14584;SDS011;7379;51.506;11.876;2024-02-23T10:21:13;2.45;;;1.60;;
14584;SDS011;7379;51.506;11.876;2024-02-23T10:23:40;2.05;;;1.58;;
14584;SDS011;7379;51.506;11.876;2024-02-23T10:26:06;3.45;;;1.50;;
14584;SDS011;7379;51.506;11.876;2024-02-23T10:28:34;3.15;;;1.45;;
14584;SDS011;7379;51.506;11.876;2024-02-23T10:31:02;1.98;;;1.60;;
14584;SDS011;7379;51.506;11.876;2024-02-23T10:33:29;1.95;;;1.50;;
14584;SDS011;7379;51.506;11.876;2024-02-23T10:35:57;1.73;;;1.30;;
14584;SDS011;7379;51.506;11.876;2024-02-23T10:38:23;2.83;;;1.50;;
14584;SDS011;7379;51.506;11.876;2024-02-23T10:40:52;2.30;;;1.60;;
14584;SDS011;7379;51.506;11.876;2024-02-23T10:43:21;2.80;;;1.35;;
14584;SDS011;7379;51.506;11.876;2024-02-23T10:45:56;2.42;;;1.67;;
14584;SDS011;7379;51.506;11.876;2024-02-23T10:48:24;3.28;;;1.40;;
14584;SDS011;7379;51.506;11.876;2024-02-23T10:50:53;1.98;;;1.20;;
14584;SDS011;7379;51.506;11.876;2024-02-23T10:53:21;2.95;;;1.50;;
14584;SDS011;7379;51.506;11.876;2024-02-23T10:55:50;3.80;;;1.63;;
14584;SDS011;7379;51.506;11.876;2024-02-23T10:58:22;1.55;;;1.45;;
14584;SDS011;7379;51.506;11.876;2024-02-23T11:00:48;2.22;;;1.38;;
14584;SDS011;7379;51.506;11.876;2024-02-23T11:03:15;3.45;;;1.60;;
14584;SDS011;7379;51.506;11.876;2024-02-23T11:05:44;4.13;;;1.60;;
14584;SDS011;7379;51.506;11.876;2024-02-23T11:08:14;3.40;;;1.52;;
14584;SDS011;7379;51.506;11.876;2024-02-23T11:10:48;1.88;;;1.27;;
14584;SDS011;7379;51.506;11.876;2024-02-23T11:13:16;1.80;;;1.35;;
14584;SDS011;7379;51.506;11.876;2024-02-23T11:15:43;4.32;;;1.52;;
14584;SDS011;7379;51.506;11.876;2024-02-23T11:18:22;2.65;;;1.70;;
14584;SDS011;7379;51.506;11.876;2024-02-23T11:20:54;3.50;;;1.80;;
14584;SDS011;7379;51.506;11.876;2024-02-23T11:23:22;2.28;;;1.48;;
14584;SDS011;7379;51.506;11.876;2024-02-23T11:25:59;1.92;;;1.52;;
14584;SDS011;7379;51.506;11.876;2024-02-23T11:28:31;2.20;;;1.60;;
14584;SDS011;7379;51.506;11.876;2024-02-23T11:30:58;2.20;;;1.50;;
14584;SDS011;7379;51.506;11.876;2024-02-23T11:33:27;2.63;;;1.63;;
14584;SDS011;7379;51.506;11.876;2024-02-23T11:36:05;1.85;;;1.40;;
14584;SDS011;7379;51.506;11.876;2024-02-23T11:38:33;3.00;;;1.55;;
14584;SDS011;7379;51.506;11.876;2024-02-23T11:41:00;3.20;;;1.70;;
14584;SDS011;7379;51.506;11.876;2024-02-23T11:43:28;2.22;;;1.55;;
14584;SDS011;7379;51.506;11.876;2024-02-23T11:45:54;2.72;;;1.60;;
14584;SDS011;7379;51.506;11.876;2024-02-23T11:48:21;2.00;;;1.50;;
14584;SDS011;7379;51.506;11.876;2024-02-23T11:50:48;2.35;;;1.42;;
14584;SDS011;7379;51.506;11.876;2024-02-23T11:53:18;2.80;;;1.58;;
14584;SDS011;7379;51.506;11.876;2024-02-23T11:55:47;1.60;;;1.40;;
14584;SDS011;7379;51.506;11.876;2024-02-23T11:58:15;1.63;;;1.52;;
14584;SDS011;7379;51.506;11.876;2024-02-23T12:00:41;1.85;;;1.25;;
14584;SDS011;7379;51.506;11.876;2024-02-23T12:03:08;1.42;;;1.33;;
14584;SDS011;7379;51.506;11.876;2024-02-23T12:05:35;2.33;;;1.25;;
14584;SDS011;7379;51.506;11.876;2024-02-23T12:08:02;2.22;;;1.63;;
14584;SDS011;7379;51.506;11.876;2024-02-23T12:10:30;2.60;;;1.52;;
14584;SDS011;7379;51.506;11.876;2024-02-23T12:12:57;1.90;;;1.67;;
14584;SDS011;7379;51.506;11.876;2024-02-23T12:15:25;2.35;;;1.40;;
14584;SDS011;7379;51.506;11.876;2024-02-23T12:17:53;2.45;;;1.35;;
14584;SDS011;7379;51.506;11.876;2024-02-23T12:20:23;2.33;;;1.42;;
14584;SDS011;7379;51.506;11.876;2024-02-23T12:22:50;2.45;;;1.33;;
14584;SDS011;7379;51.506;11.876;2024-02-23T12:25:20;2.97;;;1.48;;
14584;SDS011;7379;51.506;11.876;2024-02-23T12:27:54;2.67;;;1.45;;
14584;SDS011;7379;51.506;11.876;2024-02-23T12:30:22;1.80;;;1.42;;
14584;SDS011;7379;51.506;11.876;2024-02-23T12:32:49;2.25;;;1.42;;
14584;SDS011;7379;51.506;11.876;2024-02-23T12:35:16;3.08;;;1.50;;
14584;SDS011;7379;51.506;11.876;2024-02-23T12:37:42;2.13;;;1.40;;
14584;SDS011;7379;51.506;11.876;2024-02-23T12:40:10;1.98;;;1.30;;
14584;SDS011;7379;51.506;11.876;2024-02-23T12:42:37;2.03;;;1.30;;
14584;SDS011;7379;51.506;11.876;2024-02-23T12:45:05;1.20;;;1.10;;
14584;SDS011;7379;51.506;11.876;2024-02-23T12:47:33;2.55;;;1.63;;
14584;SDS011;7379;51.506;11.876;2024-02-23T12:49:59;3.40;;;1.15;;
14584;SDS011;7379;51.506;11.876;2024-02-23T12:52:26;2.03;;;1.40;;
14584;SDS011;7379;51.506;11.876;2024-02-23T12:54:53;2.25;;;1.20;;
14584;SDS011;7379;51.506;11.876;2024-02-23T12:57:19;2.65;;;1.63;;
14584;SDS011;7379;51.506;11.876;2024-02-23T12:59:46;3.15;;;1.42;;
14584;SDS011;7379;51.506;11.876;2024-02-23T13:02:14;3.03;;;1.50;;
14584;SDS011;7379;51.506;11.876;2024-02-23T13:04:41;3.22;;;1.52;;
14584;SDS011;7379;51.506;11.876;2024-02-23T13:07:13;6.00;;;1.80;;
14584;SDS011;7379;51.506;11.876;2024-02-23T13:09:40;4.80;;;2.10;;
14584;SDS011;7379;51.506;11.876;2024-02-23T13:12:07;4.47;;;1.60;;
14584;SDS011;7379;51.506;11.876;2024-02-23T13:14:34;2.50;;;1.55;;
14584;SDS011;7379;51.506;11.876;2024-02-23T13:17:00;5.88;;;2.00;;
14584;SDS011;7379;51.506;11.876;2024-02-23T13:19:30;5.60;;;1.85;;
14584;SDS011;7379;51.506;11.876;2024-02-23T13:21:56;5.88;;;2.38;;
14584;SDS011;7379;51.506;11.876;2024-02-23T13:24:25;3.05;;;1.60;;
14584;SDS011;7379;51.506;11.876;2024-02-23T13:26:52;2.47;;;1.60;;
14584;SDS011;7379;51.506;11.876;2024-02-23T13:29:18;2.42;;;1.67;;
14584;SDS011;7379;51.506;11.876;2024-02-23T13:31:45;4.70;;;1.88;;
14584;SDS011;7379;51.506;11.876;2024-02-23T13:34:12;3.50;;;2.00;;
14584;SDS011;7379;51.506;11.876;2024-02-23T13:36:43;4.00;;;1.90;;
14584;SDS011;7379;51.506;11.876;2024-02-23T13:39:09;3.85;;;2.10;;
14584;SDS011;7379;51.506;11.876;2024-02-23T13:41:36;3.25;;;1.90;;
14584;SDS011;7379;51.506;11.876;2024-02-23T13:44:03;3.28;;;2.10;;
14584;SDS011;7379;51.506;11.876;2024-02-23T13:46:30;3.78;;;1.98;;
14584;SDS011;7379;51.506;11.876;2024-02-23T13:49:03;3.78;;;2.00;;
14584;SDS011;7379;51.506;11.876;2024-02-23T13:51:32;6.10;;;2.05;;
14584;SDS011;7379;51.506;11.876;2024-02-23T13:54:00;3.00;;;2.10;;
14584;SDS011;7379;51.506;11.876;2024-02-23T13:56:28;2.10;;;1.85;;
14584;SDS011;7379;51.506;11.876;2024-02-23T13:58:54;3.22;;;1.90;;
14584;SDS011;7379;51.506;11.876;2024-02-23T14:01:21;2.53;;;1.80;;
14584;SDS011;7379;51.506;11.876;2024-02-23T14:03:48;4.38;;;2.08;;
14584;SDS011;7379;51.506;11.876;2024-02-23T14:06:15;3.28;;;1.90;;
14584;SDS011;7379;51.506;11.876;2024-02-23T14:08:41;3.47;;;1.50;;
14584;SDS011;7379;51.506;11.876;2024-02-23T14:11:10;2.53;;;1.80;;
14584;SDS011;7379;51.506;11.876;2024-02-23T14:13:37;2.83;;;1.80;;
14584;SDS011;7379;51.506;11.876;2024-02-23T14:16:04;3.03;;;1.80;;
14584;SDS011;7379;51.506;11.876;2024-02-23T14:18:31;2.58;;;1.70;;
14584;SDS011;7379;51.506;11.876;2024-02-23T14:21:01;2.65;;;1.63;;
14584;SDS011;7379;51.506;11.876;2024-02-23T14:23:29;2.70;;;1.63;;
14584;SDS011;7379;51.506;11.876;2024-02-23T14:25:56;2.95;;;1.60;;
14584;SDS011;7379;51.506;11.876;2024-02-23T14:28:24;2.80;;;1.60;;
14584;SDS011;7379;51.506;11.876;2024-02-23T14:30:50;1.88;;;1.33;;
14584;SDS011;7379;51.506;11.876;2024-02-23T14:33:18;2.42;;;1.50;;
14584;SDS011;7379;51.506;11.876;2024-02-23T14:35:45;2.17;;;1.55;;
14584;SDS011;7379;51.506;11.876;2024-02-23T14:38:12;3.33;;;1.55;;
14584;SDS011;7379;51.506;11.876;2024-02-23T14:40:38;2.03;;;1.70;;
14584;SDS011;7379;51.506;11.876;2024-02-23T14:43:05;2.28;;;1.50;;
14584;SDS011;7379;51.506;11.876;2024-02-23T14:45:34;1.70;;;1.30;;
14584;SDS011;7379;51.506;11.876;2024-02-23T14:48:01;2.83;;;1.40;;
14584;SDS011;7379;51.506;11.876;2024-02-23T14:50:27;1.52;;;1.40;;